sensor_id;sensor_type;location;lat;lon;timestamp;P1;durP1;ratioP1;P2;durP2;ratioP2
46835;SDS011;32573;51.290;6.926;2023-04-24T00:01:01;2.70;;;1.40;;
46835;SDS011;32573;51.290;6.926;2023-04-24T00:03:30;2.10;;;1.00;;
46835;SDS011;32573;51.290;6.926;2023-04-24T00:06:00;2.65;;;1.15;;
46835;SDS011;32573;51.290;6.926;2023-04-24T00:08:30;2.40;;;1.00;;
46835;SDS011;32573;51.290;6.926;2023-04-24T00:10:59;3.20;;;1.10;;
46835;SDS011;32573;51.290;6.926;2023-04-24T00:13:28;2.60;;;1.10;;
46835;SDS011;32573;51.290;6.926;2023-04-24T00:15:56;3.45;;;1.20;;
46835;SDS011;32573;51.290;6.926;2023-04-24T00:18:25;3.63;;;1.30;;
46835;SDS011;32573;51.290;6.926;2023-04-24T00:20:54;2.90;;;1.30;;
46835;SDS011;32573;51.290;6.926;2023-04-24T00:23:22;3.47;;;1.30;;
46835;SDS011;32573;51.290;6.926;2023-04-24T00:25:53;2.70;;;1.25;;
46835;SDS011;32573;51.290;6.926;2023-04-24T00:28:21;3.22;;;1.25;;
46835;SDS011;32573;51.290;6.926;2023-04-24T00:30:50;2.60;;;1.20;;
46835;SDS011;32573;51.290;6.926;2023-04-24T00:33:19;2.97;;;1.40;;
46835;SDS011;32573;51.290;6.926;2023-04-24T00:35:47;2.63;;;1.20;;
46835;SDS011;32573;51.290;6.926;2023-04-24T00:38:16;3.33;;;1.48;;
46835;SDS011;32573;51.290;6.926;2023-04-24T00:40:44;3.47;;;1.40;;
46835;SDS011;32573;51.290;6.926;2023-04-24T00:43:16;3.47;;;1.35;;
46835;SDS011;32573;51.290;6.926;2023-04-24T00:45:44;2.97;;;1.30;;
46835;SDS011;32573;51.290;6.926;2023-04-24T00:48:13;2.92;;;1.30;;
46835;SDS011;32573;51.290;6.926;2023-04-24T00:50:42;3.72;;;1.40;;
46835;SDS011;32573;51.290;6.926;2023-04-24T00:53:13;2.78;;;1.20;;
46835;SDS011;32573;51.290;6.926;2023-04-24T00:55:42;3.35;;;1.45;;
46835;SDS011;32573;51.290;6.926;2023-04-24T00:58:11;3.05;;;1.45;;
46835;SDS011;32573;51.290;6.926;2023-04-24T01:00:41;3.20;;;1.50;;
46835;SDS011;32573;51.290;6.926;2023-04-24T01:03:11;3.60;;;1.63;;
46835;SDS011;32573;51.290;6.926;2023-04-24T01:05:42;3.38;;;1.60;;
46835;SDS011;32573;51.290;6.926;2023-04-24T01:08:10;3.00;;;1.40;;
46835;SDS011;32573;51.290;6.926;2023-04-24T01:10:39;3.85;;;1.60;;
46835;SDS011;32573;51.290;6.926;2023-04-24T01:13:09;3.63;;;1.60;;
46835;SDS011;32573;51.290;6.926;2023-04-24T01:15:38;3.17;;;1.40;;
46835;SDS011;32573;51.290;6.926;2023-04-24T01:18:08;3.85;;;1.77;;
46835;SDS011;32573;51.290;6.926;2023-04-24T01:20:37;3.95;;;1.73;;
46835;SDS011;32573;51.290;6.926;2023-04-24T01:23:09;3.25;;;1.58;;
46835;SDS011;32573;51.290;6.926;2023-04-24T01:25:38;4.88;;;1.77;;
46835;SDS011;32573;51.290;6.926;2023-04-24T01:28:07;4.38;;;1.80;;
46835;SDS011;32573;51.290;6.926;2023-04-24T01:30:38;4.10;;;2.00;;
46835;SDS011;32573;51.290;6.926;2023-04-24T01:33:06;10.10;;;2.60;;
46835;SDS011;32573;51.290;6.926;2023-04-24T01:35:35;4.97;;;2.47;;
46835;SDS011;32573;51.290;6.926;2023-04-24T01:38:05;5.57;;;2.40;;
46835;SDS011;32573;51.290;6.926;2023-04-24T01:40:37;4.57;;;2.75;;
46835;SDS011;32573;51.290;6.926;2023-04-24T01:43:05;6.57;;;3.00;;
46835;SDS011;32573;51.290;6.926;2023-04-24T01:45:34;5.90;;;2.67;;
46835;SDS011;32573;51.290;6.926;2023-04-24T01:48:03;6.93;;;3.28;;
46835;SDS011;32573;51.290;6.926;2023-04-24T01:50:32;5.97;;;3.53;;
46835;SDS011;32573;51.290;6.926;2023-04-24T01:53:03;7.85;;;4.00;;
46835;SDS011;32573;51.290;6.926;2023-04-24T01:55:31;6.25;;;3.58;;
46835;SDS011;32573;51.290;6.926;2023-04-24T01:58:02;7.50;;;3.83;;
46835;SDS011;32573;51.290;6.926;2023-04-24T02:00:31;8.20;;;3.80;;
46835;SDS011;32573;51.290;6.926;2023-04-24T02:03:00;5.95;;;3.42;;
46835;SDS011;32573;51.290;6.926;2023-04-24T02:05:29;7.75;;;4.22;;
46835;SDS011;32573;51.290;6.926;2023-04-24T02:07:57;7.22;;;3.60;;
46835;SDS011;32573;51.290;6.926;2023-04-24T02:10:26;6.70;;;3.75;;
46835;SDS011;32573;51.290;6.926;2023-04-24T02:12:55;5.78;;;3.50;;
46835;SDS011;32573;51.290;6.926;2023-04-24T02:15:25;6.63;;;3.85;;
46835;SDS011;32573;51.290;6.926;2023-04-24T02:17:54;8.25;;;3.88;;
46835;SDS011;32573;51.290;6.926;2023-04-24T02:20:23;8.27;;;4.80;;
46835;SDS011;32573;51.290;6.926;2023-04-24T02:22:52;11.82;;;5.55;;
46835;SDS011;32573;51.290;6.926;2023-04-24T02:25:22;9.38;;;5.05;;
46835;SDS011;32573;51.290;6.926;2023-04-24T02:27:53;7.43;;;4.25;;
46835;SDS011;32573;51.290;6.926;2023-04-24T02:30:21;8.52;;;4.70;;
46835;SDS011;32573;51.290;6.926;2023-04-24T02:32:51;9.23;;;4.53;;
46835;SDS011;32573;51.290;6.926;2023-04-24T02:35:20;10.80;;;4.68;;
46835;SDS011;32573;51.290;6.926;2023-04-24T02:37:49;8.43;;;4.35;;
46835;SDS011;32573;51.290;6.926;2023-04-24T02:40:17;9.25;;;4.32;;
46835;SDS011;32573;51.290;6.926;2023-04-24T02:42:46;7.60;;;4.03;;
46835;SDS011;32573;51.290;6.926;2023-04-24T02:45:16;8.70;;;4.22;;
46835;SDS011;32573;51.290;6.926;2023-04-24T02:47:45;10.40;;;5.57;;
46835;SDS011;32573;51.290;6.926;2023-04-24T02:50:15;9.80;;;5.40;;
46835;SDS011;32573;51.290;6.926;2023-04-24T02:52:44;9.65;;;5.20;;
46835;SDS011;32573;51.290;6.926;2023-04-24T02:55:13;9.10;;;4.95;;
46835;SDS011;32573;51.290;6.926;2023-04-24T02:57:41;9.57;;;4.65;;
46835;SDS011;32573;51.290;6.926;2023-04-24T03:00:11;9.77;;;5.15;;
46835;SDS011;32573;51.290;6.926;2023-04-24T03:02:40;10.27;;;5.07;;
46835;SDS011;32573;51.290;6.926;2023-04-24T03:05:09;9.13;;;4.88;;
46835;SDS011;32573;51.290;6.926;2023-04-24T03:07:40;11.23;;;5.22;;
46835;SDS011;32573;51.290;6.926;2023-04-24T03:10:09;10.30;;;5.88;;
46835;SDS011;32573;51.290;6.926;2023-04-24T03:12:37;12.02;;;6.15;;
46835;SDS011;32573;51.290;6.926;2023-04-24T03:15:06;10.70;;;5.70;;
46835;SDS011;32573;51.290;6.926;2023-04-24T03:17:36;9.20;;;5.35;;
46835;SDS011;32573;51.290;6.926;2023-04-24T03:20:06;8.27;;;5.05;;
46835;SDS011;32573;51.290;6.926;2023-04-24T03:22:37;10.05;;;5.10;;
46835;SDS011;32573;51.290;6.926;2023-04-24T03:25:09;10.63;;;5.38;;
46835;SDS011;32573;51.290;6.926;2023-04-24T03:27:38;11.95;;;6.13;;
46835;SDS011;32573;51.290;6.926;2023-04-24T03:30:27;9.25;;;5.60;;
46835;SDS011;32573;51.290;6.926;2023-04-24T03:32:59;8.90;;;5.18;;
46835;SDS011;32573;51.290;6.926;2023-04-24T03:35:31;11.10;;;5.60;;
46835;SDS011;32573;51.290;6.926;2023-04-24T03:38:02;12.95;;;5.75;;
46835;SDS011;32573;51.290;6.926;2023-04-24T03:40:56;12.57;;;5.95;;
46835;SDS011;32573;51.290;6.926;2023-04-24T03:43:45;11.52;;;6.25;;
46835;SDS011;32573;51.290;6.926;2023-04-24T03:46:15;8.85;;;5.55;;
46835;SDS011;32573;51.290;6.926;2023-04-24T03:48:50;10.18;;;5.38;;
46835;SDS011;32573;51.290;6.926;2023-04-24T03:51:22;11.55;;;5.80;;
46835;SDS011;32573;51.290;6.926;2023-04-24T03:53:54;10.10;;;5.85;;
46835;SDS011;32573;51.290;6.926;2023-04-24T03:56:27;10.20;;;5.35;;
46835;SDS011;32573;51.290;6.926;2023-04-24T03:58:55;10.05;;;5.70;;
46835;SDS011;32573;51.290;6.926;2023-04-24T04:01:24;10.13;;;5.20;;
46835;SDS011;32573;51.290;6.926;2023-04-24T04:03:58;9.25;;;5.30;;
46835;SDS011;32573;51.290;6.926;2023-04-24T04:06:29;9.98;;;5.72;;
46835;SDS011;32573;51.290;6.926;2023-04-24T04:09:00;8.57;;;5.18;;
46835;SDS011;32573;51.290;6.926;2023-04-24T04:11:30;8.88;;;4.70;;
46835;SDS011;32573;51.290;6.926;2023-04-24T04:13:59;10.40;;;5.85;;
46835;SDS011;32573;51.290;6.926;2023-04-24T04:16:27;9.88;;;5.65;;
46835;SDS011;32573;51.290;6.926;2023-04-24T04:19:01;11.48;;;6.07;;
46835;SDS011;32573;51.290;6.926;2023-04-24T04:21:31;10.57;;;5.82;;
46835;SDS011;32573;51.290;6.926;2023-04-24T04:24:11;9.38;;;5.40;;
46835;SDS011;32573;51.290;6.926;2023-04-24T04:26:45;10.45;;;5.75;;
46835;SDS011;32573;51.290;6.926;2023-04-24T04:29:22;10.73;;;5.97;;
46835;SDS011;32573;51.290;6.926;2023-04-24T04:31:52;9.10;;;5.35;;
46835;SDS011;32573;51.290;6.926;2023-04-24T04:34:22;9.82;;;5.75;;
46835;SDS011;32573;51.290;6.926;2023-04-24T04:36:51;10.18;;;6.35;;
46835;SDS011;32573;51.290;6.926;2023-04-24T04:39:39;11.48;;;6.03;;
46835;SDS011;32573;51.290;6.926;2023-04-24T04:42:18;10.40;;;5.55;;
46835;SDS011;32573;51.290;6.926;2023-04-24T04:44:47;10.20;;;5.00;;
46835;SDS011;32573;51.290;6.926;2023-04-24T04:47:21;9.95;;;5.32;;
46835;SDS011;32573;51.290;6.926;2023-04-24T04:49:52;10.98;;;5.68;;
46835;SDS011;32573;51.290;6.926;2023-04-24T04:52:24;9.25;;;5.57;;
46835;SDS011;32573;51.290;6.926;2023-04-24T04:55:10;9.55;;;5.72;;
46835;SDS011;32573;51.290;6.926;2023-04-24T04:58:00;9.20;;;5.30;;
46835;SDS011;32573;51.290;6.926;2023-04-24T05:00:29;9.55;;;5.15;;
46835;SDS011;32573;51.290;6.926;2023-04-24T05:03:07;9.50;;;4.70;;
46835;SDS011;32573;51.290;6.926;2023-04-24T05:05:52;9.52;;;5.30;;
46835;SDS011;32573;51.290;6.926;2023-04-24T05:08:22;11.55;;;6.15;;
46835;SDS011;32573;51.290;6.926;2023-04-24T05:10:56;10.23;;;5.93;;
46835;SDS011;32573;51.290;6.926;2023-04-24T05:13:28;9.18;;;4.80;;
46835;SDS011;32573;51.290;6.926;2023-04-24T05:16:19;11.07;;;5.80;;
46835;SDS011;32573;51.290;6.926;2023-04-24T05:18:50;8.35;;;5.20;;
46835;SDS011;32573;51.290;6.926;2023-04-24T05:21:23;11.10;;;5.60;;
46835;SDS011;32573;51.290;6.926;2023-04-24T05:23:52;7.90;;;4.90;;
46835;SDS011;32573;51.290;6.926;2023-04-24T05:26:41;7.75;;;4.60;;
46835;SDS011;32573;51.290;6.926;2023-04-24T05:29:12;8.43;;;4.70;;
46835;SDS011;32573;51.290;6.926;2023-04-24T05:31:42;7.60;;;4.75;;
46835;SDS011;32573;51.290;6.926;2023-04-24T05:34:11;10.45;;;5.28;;
46835;SDS011;32573;51.290;6.926;2023-04-24T05:36:43;9.13;;;5.20;;
46835;SDS011;32573;51.290;6.926;2023-04-24T05:39:12;10.13;;;5.35;;
46835;SDS011;32573;51.290;6.926;2023-04-24T05:41:42;9.05;;;5.50;;
46835;SDS011;32573;51.290;6.926;2023-04-24T05:44:12;9.48;;;5.38;;
46835;SDS011;32573;51.290;6.926;2023-04-24T05:46:41;10.32;;;5.68;;
46835;SDS011;32573;51.290;6.926;2023-04-24T05:49:11;8.05;;;4.82;;
46835;SDS011;32573;51.290;6.926;2023-04-24T05:51:40;8.57;;;5.53;;
46835;SDS011;32573;51.290;6.926;2023-04-24T05:54:09;9.50;;;5.00;;
46835;SDS011;32573;51.290;6.926;2023-04-24T05:56:40;11.02;;;5.05;;
46835;SDS011;32573;51.290;6.926;2023-04-24T05:59:13;8.27;;;4.93;;
46835;SDS011;32573;51.290;6.926;2023-04-24T06:01:42;8.70;;;4.95;;
46835;SDS011;32573;51.290;6.926;2023-04-24T06:04:16;8.48;;;4.55;;
46835;SDS011;32573;51.290;6.926;2023-04-24T06:06:45;7.43;;;4.45;;
46835;SDS011;32573;51.290;6.926;2023-04-24T06:09:18;9.15;;;5.10;;
46835;SDS011;32573;51.290;6.926;2023-04-24T06:11:46;7.78;;;4.78;;
46835;SDS011;32573;51.290;6.926;2023-04-24T06:14:16;9.80;;;5.25;;
46835;SDS011;32573;51.290;6.926;2023-04-24T06:17:03;8.82;;;4.90;;
46835;SDS011;32573;51.290;6.926;2023-04-24T06:19:37;8.27;;;5.03;;
46835;SDS011;32573;51.290;6.926;2023-04-24T06:22:05;9.02;;;4.75;;
46835;SDS011;32573;51.290;6.926;2023-04-24T06:24:36;8.23;;;4.57;;
46835;SDS011;32573;51.290;6.926;2023-04-24T06:27:05;9.85;;;5.05;;
46835;SDS011;32573;51.290;6.926;2023-04-24T06:29:36;8.23;;;4.75;;
46835;SDS011;32573;51.290;6.926;2023-04-24T06:32:06;9.30;;;4.75;;
46835;SDS011;32573;51.290;6.926;2023-04-24T06:34:34;9.50;;;4.78;;
46835;SDS011;32573;51.290;6.926;2023-04-24T06:37:03;7.35;;;4.45;;
46835;SDS011;32573;51.290;6.926;2023-04-24T06:39:32;7.97;;;4.30;;
46835;SDS011;32573;51.290;6.926;2023-04-24T06:42:00;8.25;;;4.18;;
46835;SDS011;32573;51.290;6.926;2023-04-24T06:44:33;7.85;;;4.15;;
46835;SDS011;32573;51.290;6.926;2023-04-24T06:47:09;7.63;;;4.25;;
46835;SDS011;32573;51.290;6.926;2023-04-24T06:49:41;5.93;;;3.65;;
46835;SDS011;32573;51.290;6.926;2023-04-24T06:52:11;7.95;;;4.07;;
46835;SDS011;32573;51.290;6.926;2023-04-24T06:54:41;7.07;;;3.97;;
46835;SDS011;32573;51.290;6.926;2023-04-24T06:57:09;8.07;;;3.88;;
46835;SDS011;32573;51.290;6.926;2023-04-24T06:59:38;6.78;;;4.07;;
46835;SDS011;32573;51.290;6.926;2023-04-24T07:02:07;6.38;;;3.40;;
46835;SDS011;32573;51.290;6.926;2023-04-24T07:04:37;7.25;;;3.53;;
46835;SDS011;32573;51.290;6.926;2023-04-24T07:07:06;6.95;;;3.60;;
46835;SDS011;32573;51.290;6.926;2023-04-24T07:09:36;7.57;;;4.13;;
46835;SDS011;32573;51.290;6.926;2023-04-24T07:12:05;8.15;;;3.83;;
46835;SDS011;32573;51.290;6.926;2023-04-24T07:14:34;7.10;;;3.63;;
46835;SDS011;32573;51.290;6.926;2023-04-24T07:17:02;6.57;;;3.42;;
46835;SDS011;32573;51.290;6.926;2023-04-24T07:19:31;6.85;;;3.30;;
46835;SDS011;32573;51.290;6.926;2023-04-24T07:22:02;6.57;;;3.10;;
46835;SDS011;32573;51.290;6.926;2023-04-24T07:24:32;5.85;;;2.80;;
46835;SDS011;32573;51.290;6.926;2023-04-24T07:27:01;5.75;;;3.28;;
46835;SDS011;32573;51.290;6.926;2023-04-24T07:29:30;5.80;;;3.17;;
46835;SDS011;32573;51.290;6.926;2023-04-24T07:31:58;4.88;;;3.17;;
46835;SDS011;32573;51.290;6.926;2023-04-24T07:34:30;5.80;;;3.22;;
46835;SDS011;32573;51.290;6.926;2023-04-24T07:36:58;6.40;;;3.55;;
46835;SDS011;32573;51.290;6.926;2023-04-24T07:39:28;5.82;;;2.70;;
46835;SDS011;32573;51.290;6.926;2023-04-24T07:41:57;4.47;;;2.05;;
46835;SDS011;32573;51.290;6.926;2023-04-24T07:44:26;3.78;;;1.80;;
46835;SDS011;32573;51.290;6.926;2023-04-24T07:46:55;4.32;;;1.75;;
46835;SDS011;32573;51.290;6.926;2023-04-24T07:49:24;2.72;;;1.25;;
46835;SDS011;32573;51.290;6.926;2023-04-24T07:51:52;2.35;;;1.10;;
46835;SDS011;32573;51.290;6.926;2023-04-24T07:54:21;3.50;;;1.17;;
46835;SDS011;32573;51.290;6.926;2023-04-24T07:56:51;3.10;;;1.15;;
46835;SDS011;32573;51.290;6.926;2023-04-24T07:59:19;2.35;;;1.00;;
46835;SDS011;32573;51.290;6.926;2023-04-24T08:01:48;2.72;;;1.10;;
46835;SDS011;32573;51.290;6.926;2023-04-24T08:04:16;2.08;;;1.02;;
46835;SDS011;32573;51.290;6.926;2023-04-24T08:06:46;3.17;;;0.98;;
46835;SDS011;32573;51.290;6.926;2023-04-24T08:09:15;1.95;;;0.90;;
46835;SDS011;32573;51.290;6.926;2023-04-24T08:11:44;2.67;;;1.25;;
46835;SDS011;32573;51.290;6.926;2023-04-24T08:14:22;2.38;;;1.02;;
46835;SDS011;32573;51.290;6.926;2023-04-24T08:16:52;2.08;;;1.00;;
46835;SDS011;32573;51.290;6.926;2023-04-24T08:19:22;2.08;;;1.02;;
46835;SDS011;32573;51.290;6.926;2023-04-24T08:21:52;3.38;;;1.00;;
46835;SDS011;32573;51.290;6.926;2023-04-24T08:24:21;2.83;;;1.15;;
46835;SDS011;32573;51.290;6.926;2023-04-24T08:26:52;3.00;;;1.10;;
46835;SDS011;32573;51.290;6.926;2023-04-24T08:29:25;2.20;;;1.10;;
46835;SDS011;32573;51.290;6.926;2023-04-24T08:31:55;2.85;;;1.20;;
46835;SDS011;32573;51.290;6.926;2023-04-24T08:34:23;2.15;;;1.08;;
46835;SDS011;32573;51.290;6.926;2023-04-24T08:36:52;2.70;;;1.20;;
46835;SDS011;32573;51.290;6.926;2023-04-24T08:39:20;2.10;;;1.05;;
46835;SDS011;32573;51.290;6.926;2023-04-24T08:41:49;3.08;;;1.13;;
46835;SDS011;32573;51.290;6.926;2023-04-24T08:44:20;2.10;;;1.00;;
46835;SDS011;32573;51.290;6.926;2023-04-24T08:46:51;2.55;;;1.10;;
46835;SDS011;32573;51.290;6.926;2023-04-24T08:49:21;2.58;;;1.05;;
46835;SDS011;32573;51.290;6.926;2023-04-24T08:51:52;2.92;;;1.13;;
46835;SDS011;32573;51.290;6.926;2023-04-24T08:54:21;1.90;;;1.00;;
46835;SDS011;32573;51.290;6.926;2023-04-24T08:56:49;2.38;;;1.20;;
46835;SDS011;32573;51.290;6.926;2023-04-24T08:59:22;3.08;;;1.13;;
46835;SDS011;32573;51.290;6.926;2023-04-24T09:01:53;2.67;;;1.08;;
46835;SDS011;32573;51.290;6.926;2023-04-24T09:04:24;2.25;;;1.00;;
46835;SDS011;32573;51.290;6.926;2023-04-24T09:06:57;2.75;;;1.30;;
46835;SDS011;32573;51.290;6.926;2023-04-24T09:09:26;3.33;;;1.50;;
46835;SDS011;32573;51.290;6.926;2023-04-24T09:11:59;3.38;;;1.40;;
46835;SDS011;32573;51.290;6.926;2023-04-24T09:14:28;4.35;;;2.17;;
46835;SDS011;32573;51.290;6.926;2023-04-24T09:17:00;5.88;;;2.50;;
46835;SDS011;32573;51.290;6.926;2023-04-24T09:19:29;5.38;;;2.70;;
46835;SDS011;32573;51.290;6.926;2023-04-24T09:21:57;5.88;;;3.03;;
46835;SDS011;32573;51.290;6.926;2023-04-24T09:24:26;5.72;;;2.78;;
46835;SDS011;32573;51.290;6.926;2023-04-24T09:26:56;7.40;;;3.72;;
46835;SDS011;32573;51.290;6.926;2023-04-24T09:29:26;6.03;;;3.20;;
46835;SDS011;32573;51.290;6.926;2023-04-24T09:31:55;7.53;;;4.00;;
46835;SDS011;32573;51.290;6.926;2023-04-24T09:34:29;8.07;;;4.35;;
46835;SDS011;32573;51.290;6.926;2023-04-24T09:36:59;7.55;;;3.88;;
46835;SDS011;32573;51.290;6.926;2023-04-24T09:39:27;8.13;;;3.88;;
46835;SDS011;32573;51.290;6.926;2023-04-24T09:41:56;6.88;;;3.70;;
46835;SDS011;32573;51.290;6.926;2023-04-24T09:44:27;8.32;;;4.28;;
46835;SDS011;32573;51.290;6.926;2023-04-24T09:46:58;8.77;;;4.43;;
46835;SDS011;32573;51.290;6.926;2023-04-24T09:49:29;8.80;;;4.30;;
46835;SDS011;32573;51.290;6.926;2023-04-24T09:52:07;11.65;;;4.55;;
46835;SDS011;32573;51.290;6.926;2023-04-24T09:54:38;9.20;;;4.47;;
46835;SDS011;32573;51.290;6.926;2023-04-24T09:57:08;10.40;;;4.45;;
46835;SDS011;32573;51.290;6.926;2023-04-24T09:59:41;9.98;;;4.75;;
46835;SDS011;32573;51.290;6.926;2023-04-24T10:02:17;10.15;;;4.85;;
46835;SDS011;32573;51.290;6.926;2023-04-24T10:04:55;12.43;;;5.68;;
46835;SDS011;32573;51.290;6.926;2023-04-24T10:07:28;13.98;;;5.60;;
46835;SDS011;32573;51.290;6.926;2023-04-24T10:10:01;12.35;;;5.30;;
46835;SDS011;32573;51.290;6.926;2023-04-24T10:12:29;12.13;;;5.82;;
46835;SDS011;32573;51.290;6.926;2023-04-24T10:14:59;12.15;;;5.50;;
46835;SDS011;32573;51.290;6.926;2023-04-24T10:17:34;13.88;;;5.28;;
46835;SDS011;32573;51.290;6.926;2023-04-24T10:20:07;12.98;;;5.57;;
46835;SDS011;32573;51.290;6.926;2023-04-24T10:22:37;13.88;;;5.57;;
46835;SDS011;32573;51.290;6.926;2023-04-24T10:25:08;13.10;;;6.03;;
46835;SDS011;32573;51.290;6.926;2023-04-24T10:27:38;14.98;;;5.47;;
46835;SDS011;32573;51.290;6.926;2023-04-24T10:30:08;14.95;;;5.63;;
46835;SDS011;32573;51.290;6.926;2023-04-24T10:32:40;11.98;;;5.40;;
46835;SDS011;32573;51.290;6.926;2023-04-24T10:35:11;13.93;;;4.85;;
46835;SDS011;32573;51.290;6.926;2023-04-24T10:37:52;12.85;;;4.95;;
46835;SDS011;32573;51.290;6.926;2023-04-24T10:40:33;11.10;;;4.22;;
46835;SDS011;32573;51.290;6.926;2023-04-24T10:43:04;9.43;;;4.45;;
46835;SDS011;32573;51.290;6.926;2023-04-24T10:45:36;13.73;;;4.50;;
46835;SDS011;32573;51.290;6.926;2023-04-24T10:48:08;13.25;;;5.05;;
46835;SDS011;32573;51.290;6.926;2023-04-24T10:50:44;17.90;;;4.75;;
46835;SDS011;32573;51.290;6.926;2023-04-24T10:53:15;11.95;;;4.88;;
46835;SDS011;32573;51.290;6.926;2023-04-24T10:55:49;12.10;;;5.07;;
46835;SDS011;32573;51.290;6.926;2023-04-24T10:58:21;14.25;;;4.78;;
46835;SDS011;32573;51.290;6.926;2023-04-24T11:00:56;12.13;;;5.07;;
46835;SDS011;32573;51.290;6.926;2023-04-24T11:03:26;11.45;;;4.78;;
46835;SDS011;32573;51.290;6.926;2023-04-24T11:06:01;9.45;;;4.85;;
46835;SDS011;32573;51.290;6.926;2023-04-24T11:08:36;15.45;;;5.55;;
46835;SDS011;32573;51.290;6.926;2023-04-24T11:11:17;14.73;;;5.05;;
46835;SDS011;32573;51.290;6.926;2023-04-24T11:16:44;16.70;;;7.43;;
46835;SDS011;32573;51.290;6.926;2023-04-24T11:19:21;20.38;;;6.75;;
46835;SDS011;32573;51.290;6.926;2023-04-24T11:21:59;18.92;;;7.70;;
46835;SDS011;32573;51.290;6.926;2023-04-24T11:24:31;15.32;;;7.10;;
46835;SDS011;32573;51.290;6.926;2023-04-24T11:27:13;18.92;;;7.95;;
46835;SDS011;32573;51.290;6.926;2023-04-24T11:29:45;15.23;;;7.65;;
46835;SDS011;32573;51.290;6.926;2023-04-24T11:32:23;16.25;;;7.57;;
46835;SDS011;32573;51.290;6.926;2023-04-24T11:34:57;15.35;;;7.55;;
46835;SDS011;32573;51.290;6.926;2023-04-24T11:37:34;16.80;;;6.88;;
46835;SDS011;32573;51.290;6.926;2023-04-24T11:40:05;12.65;;;6.13;;
46835;SDS011;32573;51.290;6.926;2023-04-24T11:42:36;12.10;;;5.40;;
46835;SDS011;32573;51.290;6.926;2023-04-24T11:45:09;10.48;;;5.00;;
46835;SDS011;32573;51.290;6.926;2023-04-24T11:47:42;11.65;;;4.93;;
46835;SDS011;32573;51.290;6.926;2023-04-24T11:50:12;11.55;;;4.50;;
46835;SDS011;32573;51.290;6.926;2023-04-24T11:52:46;13.27;;;5.03;;
46835;SDS011;32573;51.290;6.926;2023-04-24T11:55:23;13.30;;;5.00;;
46835;SDS011;32573;51.290;6.926;2023-04-24T11:57:56;14.02;;;5.35;;
46835;SDS011;32573;51.290;6.926;2023-04-24T12:00:31;12.43;;;5.03;;
46835;SDS011;32573;51.290;6.926;2023-04-24T12:03:03;10.32;;;4.55;;
46835;SDS011;32573;51.290;6.926;2023-04-24T12:05:34;12.25;;;4.80;;
46835;SDS011;32573;51.290;6.926;2023-04-24T12:08:05;9.32;;;4.45;;
46835;SDS011;32573;51.290;6.926;2023-04-24T12:10:35;9.02;;;4.53;;
46835;SDS011;32573;51.290;6.926;2023-04-24T12:13:04;10.73;;;4.10;;
46835;SDS011;32573;51.290;6.926;2023-04-24T12:15:32;9.60;;;4.10;;
46835;SDS011;32573;51.290;6.926;2023-04-24T12:18:01;11.95;;;3.88;;
46835;SDS011;32573;51.290;6.926;2023-04-24T12:20:31;10.52;;;4.22;;
46835;SDS011;32573;51.290;6.926;2023-04-24T12:23:00;10.32;;;3.50;;
46835;SDS011;32573;51.290;6.926;2023-04-24T12:25:33;9.32;;;3.08;;
46835;SDS011;32573;51.290;6.926;2023-04-24T12:28:09;8.70;;;3.13;;
46835;SDS011;32573;51.290;6.926;2023-04-24T12:30:39;9.52;;;3.40;;
46835;SDS011;32573;51.290;6.926;2023-04-24T12:33:11;8.35;;;3.28;;
46835;SDS011;32573;51.290;6.926;2023-04-24T12:35:40;7.15;;;2.90;;
46835;SDS011;32573;51.290;6.926;2023-04-24T12:38:09;11.00;;;3.35;;
46835;SDS011;32573;51.290;6.926;2023-04-24T12:40:41;6.97;;;3.25;;
46835;SDS011;32573;51.290;6.926;2023-04-24T12:43:14;7.45;;;2.97;;
46835;SDS011;32573;51.290;6.926;2023-04-24T12:45:43;8.07;;;3.03;;
46835;SDS011;32573;51.290;6.926;2023-04-24T12:48:12;6.13;;;3.00;;
46835;SDS011;32573;51.290;6.926;2023-04-24T12:50:41;7.00;;;2.88;;
46835;SDS011;32573;51.290;6.926;2023-04-24T12:53:12;9.32;;;3.47;;
46835;SDS011;32573;51.290;6.926;2023-04-24T12:55:43;6.18;;;2.92;;
46835;SDS011;32573;51.290;6.926;2023-04-24T12:58:14;8.48;;;3.53;;
46835;SDS011;32573;51.290;6.926;2023-04-24T13:00:42;6.57;;;3.35;;
46835;SDS011;32573;51.290;6.926;2023-04-24T13:03:12;6.20;;;3.20;;
46835;SDS011;32573;51.290;6.926;2023-04-24T13:05:42;8.75;;;2.90;;
46835;SDS011;32573;51.290;6.926;2023-04-24T13:08:11;5.38;;;2.60;;
46835;SDS011;32573;51.290;6.926;2023-04-24T13:10:40;4.80;;;2.28;;
46835;SDS011;32573;51.290;6.926;2023-04-24T13:13:10;8.13;;;2.45;;
46835;SDS011;32573;51.290;6.926;2023-04-24T13:15:40;5.00;;;1.85;;
46835;SDS011;32573;51.290;6.926;2023-04-24T13:18:08;5.32;;;2.20;;
46835;SDS011;32573;51.290;6.926;2023-04-24T13:20:37;5.90;;;2.28;;
46835;SDS011;32573;51.290;6.926;2023-04-24T13:23:07;4.35;;;2.10;;
46835;SDS011;32573;51.290;6.926;2023-04-24T13:25:36;7.15;;;2.03;;
46835;SDS011;32573;51.290;6.926;2023-04-24T13:28:07;5.07;;;2.00;;
46835;SDS011;32573;51.290;6.926;2023-04-24T13:30:37;6.88;;;2.10;;
46835;SDS011;32573;51.290;6.926;2023-04-24T13:33:09;4.40;;;2.03;;
46835;SDS011;32573;51.290;6.926;2023-04-24T13:35:37;6.60;;;2.00;;
46835;SDS011;32573;51.290;6.926;2023-04-24T13:38:06;10.00;;;2.42;;
46835;SDS011;32573;51.290;6.926;2023-04-24T13:40:36;4.93;;;1.90;;
46835;SDS011;32573;51.290;6.926;2023-04-24T13:43:05;4.72;;;1.90;;
46835;SDS011;32573;51.290;6.926;2023-04-24T13:45:33;4.68;;;2.13;;
46835;SDS011;32573;51.290;6.926;2023-04-24T13:48:03;6.22;;;2.00;;
46835;SDS011;32573;51.290;6.926;2023-04-24T13:50:32;4.43;;;1.85;;
46835;SDS011;32573;51.290;6.926;2023-04-24T13:53:01;4.43;;;1.70;;
46835;SDS011;32573;51.290;6.926;2023-04-24T13:55:30;4.75;;;1.73;;
46835;SDS011;32573;51.290;6.926;2023-04-24T13:57:58;4.97;;;1.83;;
46835;SDS011;32573;51.290;6.926;2023-04-24T14:00:28;5.18;;;1.55;;
46835;SDS011;32573;51.290;6.926;2023-04-24T14:02:57;3.85;;;1.40;;
46835;SDS011;32573;51.290;6.926;2023-04-24T14:05:28;4.75;;;1.58;;
46835;SDS011;32573;51.290;6.926;2023-04-24T14:07:56;3.38;;;1.63;;
46835;SDS011;32573;51.290;6.926;2023-04-24T14:10:25;3.63;;;1.77;;
46835;SDS011;32573;51.290;6.926;2023-04-24T14:12:54;5.28;;;1.70;;
46835;SDS011;32573;51.290;6.926;2023-04-24T14:15:22;3.38;;;1.60;;
46835;SDS011;32573;51.290;6.926;2023-04-24T14:17:52;5.57;;;1.83;;
46835;SDS011;32573;51.290;6.926;2023-04-24T14:20:21;3.25;;;1.70;;
46835;SDS011;32573;51.290;6.926;2023-04-24T14:22:52;5.20;;;1.73;;
46835;SDS011;32573;51.290;6.926;2023-04-24T14:25:21;3.83;;;1.70;;
46835;SDS011;32573;51.290;6.926;2023-04-24T14:27:50;4.45;;;1.67;;
46835;SDS011;32573;51.290;6.926;2023-04-24T14:30:19;5.97;;;1.77;;
46835;SDS011;32573;51.290;6.926;2023-04-24T14:32:47;3.75;;;1.75;;
46835;SDS011;32573;51.290;6.926;2023-04-24T14:35:16;4.75;;;1.70;;
46835;SDS011;32573;51.290;6.926;2023-04-24T14:37:45;5.05;;;1.50;;
46835;SDS011;32573;51.290;6.926;2023-04-24T14:40:16;4.60;;;1.60;;
46835;SDS011;32573;51.290;6.926;2023-04-24T14:43:08;6.25;;;1.90;;
46835;SDS011;32573;51.290;6.926;2023-04-24T14:45:36;4.68;;;1.70;;
46835;SDS011;32573;51.290;6.926;2023-04-24T14:48:08;4.07;;;1.50;;
46835;SDS011;32573;51.290;6.926;2023-04-24T14:50:38;2.72;;;1.42;;
46835;SDS011;32573;51.290;6.926;2023-04-24T14:53:06;3.95;;;1.50;;
46835;SDS011;32573;51.290;6.926;2023-04-24T14:55:36;4.78;;;1.65;;
46835;SDS011;32573;51.290;6.926;2023-04-24T14:58:04;4.28;;;1.75;;
46835;SDS011;32573;51.290;6.926;2023-04-24T15:00:35;4.65;;;1.65;;
46835;SDS011;32573;51.290;6.926;2023-04-24T15:03:03;4.55;;;1.90;;
46835;SDS011;32573;51.290;6.926;2023-04-24T15:05:32;5.75;;;1.73;;
46835;SDS011;32573;51.290;6.926;2023-04-24T15:08:02;3.92;;;1.40;;